sensor_id;sensor_type;location;lat;lon;timestamp;temperature;humidity
53904;DHT22;39812;52.430;16.936;2022-12-10T00:01:16;1.60;99.90
53904;DHT22;39812;52.430;16.936;2022-12-10T00:03:43;1.60;99.90
53904;DHT22;39812;52.430;16.936;2022-12-10T00:06:12;1.60;99.90
53904;DHT22;39812;52.430;16.936;2022-12-10T00:08:38;1.60;99.90
53904;DHT22;39812;52.430;16.936;2022-12-10T00:11:05;1.50;99.90
53904;DHT22;39812;52.430;16.936;2022-12-10T00:13:33;1.60;99.90
53904;DHT22;39812;52.430;16.936;2022-12-10T00:16:00;1.60;99.90
53904;DHT22;39812;52.430;16.936;2022-12-10T00:18:26;1.60;99.90
53904;DHT22;39812;52.430;16.936;2022-12-10T00:20:52;1.60;99.90
53904;DHT22;39812;52.430;16.936;2022-12-10T00:23:17;1.60;99.90
53904;DHT22;39812;52.430;16.936;2022-12-10T00:25:43;1.60;99.90
53904;DHT22;39812;52.430;16.936;2022-12-10T00:28:09;1.60;99.90
53904;DHT22;39812;52.430;16.936;2022-12-10T00:30:34;1.60;99.90
53904;DHT22;39812;52.430;16.936;2022-12-10T00:33:00;1.60;99.90
53904;DHT22;39812;52.430;16.936;2022-12-10T00:35:26;1.70;99.90
53904;DHT22;39812;52.430;16.936;2022-12-10T00:37:51;1.70;99.90
53904;DHT22;39812;52.430;16.936;2022-12-10T00:40:17;1.60;99.90
53904;DHT22;39812;52.430;16.936;2022-12-10T00:42:42;1.60;99.90
53904;DHT22;39812;52.430;16.936;2022-12-10T00:45:08;1.60;99.90
53904;DHT22;39812;52.430;16.936;2022-12-10T00:47:34;1.60;99.90
53904;DHT22;39812;52.430;16.936;2022-12-10T00:49:59;1.70;99.90
53904;DHT22;39812;52.430;16.936;2022-12-10T00:52:25;1.60;99.90
53904;DHT22;39812;52.430;16.936;2022-12-10T00:54:50;1.60;99.90
53904;DHT22;39812;52.430;16.936;2022-12-10T00:57:16;1.50;99.90
53904;DHT22;39812;52.430;16.936;2022-12-10T00:59:41;1.50;99.90
53904;DHT22;39812;52.430;16.936;2022-12-10T01:02:07;1.50;99.90
53904;DHT22;39812;52.430;16.936;2022-12-10T01:04:33;1.50;99.90
53904;DHT22;39812;52.430;16.936;2022-12-10T01:06:58;1.50;99.90
53904;DHT22;39812;52.430;16.936;2022-12-10T01:09:27;1.60;99.90
53904;DHT22;39812;52.430;16.936;2022-12-10T01:11:54;1.50;99.90
53904;DHT22;39812;52.430;16.936;2022-12-10T01:14:26;1.50;99.90
53904;DHT22;39812;52.430;16.936;2022-12-10T01:16:58;1.50;99.90
53904;DHT22;39812;52.430;16.936;2022-12-10T01:19:24;1.60;99.90
53904;DHT22;39812;52.430;16.936;2022-12-10T01:21:51;1.50;99.90
53904;DHT22;39812;52.430;16.936;2022-12-10T01:24:17;1.50;99.90
53904;DHT22;39812;52.430;16.936;2022-12-10T01:26:42;1.50;99.90
53904;DHT22;39812;52.430;16.936;2022-12-10T01:29:10;1.50;99.90
53904;DHT22;39812;52.430;16.936;2022-12-10T01:31:37;1.50;99.90
53904;DHT22;39812;52.430;16.936;2022-12-10T01:34:04;1.50;99.90
53904;DHT22;39812;52.430;16.936;2022-12-10T01:36:33;1.40;99.90
53904;DHT22;39812;52.430;16.936;2022-12-10T01:39:00;1.50;99.90
53904;DHT22;39812;52.430;16.936;2022-12-10T01:41:35;1.50;99.90
53904;DHT22;39812;52.430;16.936;2022-12-10T01:46:39;1.40;99.90
53904;DHT22;39812;52.430;16.936;2022-12-10T01:49:12;1.40;99.90
53904;DHT22;39812;52.430;16.936;2022-12-10T01:51:40;1.40;99.90
53904;DHT22;39812;52.430;16.936;2022-12-10T01:54:13;1.40;99.90
53904;DHT22;39812;52.430;16.936;2022-12-10T01:56:42;1.30;99.90
53904;DHT22;39812;52.430;16.936;2022-12-10T01:59:08;1.30;99.90
53904;DHT22;39812;52.430;16.936;2022-12-10T02:02:04;1.30;99.90
53904;DHT22;39812;52.430;16.936;2022-12-10T02:13:22;1.30;99.90
53904;DHT22;39812;52.430;16.936;2022-12-10T02:15:52;1.30;99.90
53904;DHT22;39812;52.430;16.936;2022-12-10T02:18:31;1.30;99.90
53904;DHT22;39812;52.430;16.936;2022-12-10T02:21:01;1.30;99.90
53904;DHT22;39812;52.430;16.936;2022-12-10T02:23:36;1.30;99.90
53904;DHT22;39812;52.430;16.936;2022-12-10T02:31:15;1.30;99.90
53904;DHT22;39812;52.430;16.936;2022-12-10T02:33:45;1.20;99.90
53904;DHT22;39812;52.430;16.936;2022-12-10T02:36:14;1.30;99.90
53904;DHT22;39812;52.430;16.936;2022-12-10T02:38:41;1.20;99.90
53904;DHT22;39812;52.430;16.936;2022-12-10T02:41:22;1.30;99.90
53904;DHT22;39812;52.430;16.936;2022-12-10T02:43:52;1.30;99.90
53904;DHT22;39812;52.430;16.936;2022-12-10T02:46:18;1.20;99.90
53904;DHT22;39812;52.430;16.936;2022-12-10T02:48:46;1.20;99.90
53904;DHT22;39812;52.430;16.936;2022-12-10T02:51:13;1.30;99.90
53904;DHT22;39812;52.430;16.936;2022-12-10T02:53:45;1.30;99.90
53904;DHT22;39812;52.430;16.936;2022-12-10T02:59:20;1.20;99.90
53904;DHT22;39812;52.430;16.936;2022-12-10T03:07:34;1.30;99.90
53904;DHT22;39812;52.430;16.936;2022-12-10T03:10:11;1.30;99.90
53904;DHT22;39812;52.430;16.936;2022-12-10T03:12:43;1.30;99.90
53904;DHT22;39812;52.430;16.936;2022-12-10T03:15:11;1.30;99.90
53904;DHT22;39812;52.430;16.936;2022-12-10T03:17:39;1.40;99.90
53904;DHT22;39812;52.430;16.936;2022-12-10T03:20:10;1.40;99.90
53904;DHT22;39812;52.430;16.936;2022-12-10T03:22:39;1.40;99.90
53904;DHT22;39812;52.430;16.936;2022-12-10T03:25:07;1.40;99.90
53904;DHT22;39812;52.430;16.936;2022-12-10T03:27:34;1.40;99.90
53904;DHT22;39812;52.430;16.936;2022-12-10T03:30:02;1.40;99.90
53904;DHT22;39812;52.430;16.936;2022-12-10T03:32:29;1.30;99.90
53904;DHT22;39812;52.430;16.936;2022-12-10T03:34:56;1.30;99.90
53904;DHT22;39812;52.430;16.936;2022-12-10T03:37:24;1.30;99.90
53904;DHT22;39812;52.430;16.936;2022-12-10T03:39:51;1.30;99.90
53904;DHT22;39812;52.430;16.936;2022-12-10T03:42:17;1.20;99.90
53904;DHT22;39812;52.430;16.936;2022-12-10T03:44:42;1.30;99.90
53904;DHT22;39812;52.430;16.936;2022-12-10T03:47:12;1.20;99.90
53904;DHT22;39812;52.430;16.936;2022-12-10T03:49:38;1.20;99.90
53904;DHT22;39812;52.430;16.936;2022-12-10T03:52:04;1.20;99.90
53904;DHT22;39812;52.430;16.936;2022-12-10T03:54:29;1.20;99.90
53904;DHT22;39812;52.430;16.936;2022-12-10T03:56:55;1.30;99.90
53904;DHT22;39812;52.430;16.936;2022-12-10T03:59:21;1.30;99.90
53904;DHT22;39812;52.430;16.936;2022-12-10T04:01:46;1.30;99.90
53904;DHT22;39812;52.430;16.936;2022-12-10T04:04:12;1.30;99.90
53904;DHT22;39812;52.430;16.936;2022-12-10T04:06:39;1.30;99.90
53904;DHT22;39812;52.430;16.936;2022-12-10T04:09:05;1.40;99.90
53904;DHT22;39812;52.430;16.936;2022-12-10T04:11:31;1.30;99.90
53904;DHT22;39812;52.430;16.936;2022-12-10T04:13:57;1.40;99.90
53904;DHT22;39812;52.430;16.936;2022-12-10T04:16:41;1.30;99.90
53904;DHT22;39812;52.430;16.936;2022-12-10T04:19:12;1.40;99.90
53904;DHT22;39812;52.430;16.936;2022-12-10T04:21:39;1.30;99.90
53904;DHT22;39812;52.430;16.936;2022-12-10T04:24:25;1.30;99.90
53904;DHT22;39812;52.430;16.936;2022-12-10T04:27:19;1.30;99.90
53904;DHT22;39812;52.430;16.936;2022-12-10T04:29:45;1.20;99.90
53904;DHT22;39812;52.430;16.936;2022-12-10T04:32:11;1.20;99.90
53904;DHT22;39812;52.430;16.936;2022-12-10T04:34:37;1.20;99.90
53904;DHT22;39812;52.430;16.936;2022-12-10T04:37:03;1.10;99.90
53904;DHT22;39812;52.430;16.936;2022-12-10T04:39:29;1.20;99.90
53904;DHT22;39812;52.430;16.936;2022-12-10T04:41:55;1.20;99.90
53904;DHT22;39812;52.430;16.936;2022-12-10T04:44:21;1.20;99.90
53904;DHT22;39812;52.430;16.936;2022-12-10T04:46:47;1.20;99.90
53904;DHT22;39812;52.430;16.936;2022-12-10T04:49:13;1.20;99.90
53904;DHT22;39812;52.430;16.936;2022-12-10T04:51:39;1.30;99.90
53904;DHT22;39812;52.430;16.936;2022-12-10T04:54:06;1.20;99.90
53904;DHT22;39812;52.430;16.936;2022-12-10T04:56:32;1.20;99.90
53904;DHT22;39812;52.430;16.936;2022-12-10T04:58:58;1.30;99.90
53904;DHT22;39812;52.430;16.936;2022-12-10T05:01:24;1.20;99.90
53904;DHT22;39812;52.430;16.936;2022-12-10T05:03:50;1.20;99.90
53904;DHT22;39812;52.430;16.936;2022-12-10T05:06:17;1.20;99.90
53904;DHT22;39812;52.430;16.936;2022-12-10T05:08:44;1.20;99.90
53904;DHT22;39812;52.430;16.936;2022-12-10T05:11:15;1.20;99.90
53904;DHT22;39812;52.430;16.936;2022-12-10T05:13:41;1.20;99.90
53904;DHT22;39812;52.430;16.936;2022-12-10T05:16:09;1.20;99.90
53904;DHT22;39812;52.430;16.936;2022-12-10T05:18:36;1.20;99.90
53904;DHT22;39812;52.430;16.936;2022-12-10T05:21:04;1.10;99.90
53904;DHT22;39812;52.430;16.936;2022-12-10T05:23:30;1.20;99.90
53904;DHT22;39812;52.430;16.936;2022-12-10T05:26:15;1.30;99.90
53904;DHT22;39812;52.430;16.936;2022-12-10T05:28:49;1.40;99.90
53904;DHT22;39812;52.430;16.936;2022-12-10T05:31:19;1.30;99.90
53904;DHT22;39812;52.430;16.936;2022-12-10T05:33:45;1.30;99.90
53904;DHT22;39812;52.430;16.936;2022-12-10T05:36:14;1.20;99.90
53904;DHT22;39812;52.430;16.936;2022-12-10T05:38:40;1.20;99.90
53904;DHT22;39812;52.430;16.936;2022-12-10T05:41:15;1.20;99.90
53904;DHT22;39812;52.430;16.936;2022-12-10T05:43:41;1.20;99.90
53904;DHT22;39812;52.430;16.936;2022-12-10T05:46:10;1.30;99.90
53904;DHT22;39812;52.430;16.936;2022-12-10T05:48:37;1.30;99.90
53904;DHT22;39812;52.430;16.936;2022-12-10T05:51:11;1.30;99.90
53904;DHT22;39812;52.430;16.936;2022-12-10T05:53:37;1.40;99.90
53904;DHT22;39812;52.430;16.936;2022-12-10T05:56:05;1.40;99.90
53904;DHT22;39812;52.430;16.936;2022-12-10T05:58:32;1.40;99.90
53904;DHT22;39812;52.430;16.936;2022-12-10T06:00:58;1.30;99.90
53904;DHT22;39812;52.430;16.936;2022-12-10T06:03:26;1.40;99.90
53904;DHT22;39812;52.430;16.936;2022-12-10T06:05:52;1.40;99.90
53904;DHT22;39812;52.430;16.936;2022-12-10T06:08:17;1.40;99.90
53904;DHT22;39812;52.430;16.936;2022-12-10T06:10:43;1.50;99.90
53904;DHT22;39812;52.430;16.936;2022-12-10T06:13:09;1.50;99.90
53904;DHT22;39812;52.430;16.936;2022-12-10T06:15:37;1.50;99.90
53904;DHT22;39812;52.430;16.936;2022-12-10T06:18:03;1.40;99.90
53904;DHT22;39812;52.430;16.936;2022-12-10T06:20:29;1.40;99.90
53904;DHT22;39812;52.430;16.936;2022-12-10T06:22:54;1.40;99.90
53904;DHT22;39812;52.430;16.936;2022-12-10T06:25:20;1.30;99.90
53904;DHT22;39812;52.430;16.936;2022-12-10T06:27:46;1.30;99.90
53904;DHT22;39812;52.430;16.936;2022-12-10T06:30:11;1.30;99.90
53904;DHT22;39812;52.430;16.936;2022-12-10T06:32:37;1.10;99.90
53904;DHT22;39812;52.430;16.936;2022-12-10T06:35:03;1.10;99.90
53904;DHT22;39812;52.430;16.936;2022-12-10T06:37:29;1.10;99.90
53904;DHT22;39812;52.430;16.936;2022-12-10T06:39:55;1.20;99.90
53904;DHT22;39812;52.430;16.936;2022-12-10T06:42:20;1.20;99.90
53904;DHT22;39812;52.430;16.936;2022-12-10T06:44:47;1.20;99.90
53904;DHT22;39812;52.430;16.936;2022-12-10T06:47:13;1.30;99.90
53904;DHT22;39812;52.430;16.936;2022-12-10T06:49:39;1.30;99.90
53904;DHT22;39812;52.430;16.936;2022-12-10T06:52:05;1.30;99.90
53904;DHT22;39812;52.430;16.936;2022-12-10T06:54:30;1.30;99.90
53904;DHT22;39812;52.430;16.936;2022-12-10T06:56:56;1.30;99.90
53904;DHT22;39812;52.430;16.936;2022-12-10T06:59:22;1.30;99.90
53904;DHT22;39812;52.430;16.936;2022-12-10T07:01:48;1.30;99.90
53904;DHT22;39812;52.430;16.936;2022-12-10T07:04:13;1.30;99.90
53904;DHT22;39812;52.430;16.936;2022-12-10T07:06:39;1.30;99.90
53904;DHT22;39812;52.430;16.936;2022-12-10T07:09:04;1.20;99.90
53904;DHT22;39812;52.430;16.936;2022-12-10T07:11:30;1.20;99.90
53904;DHT22;39812;52.430;16.936;2022-12-10T07:13:57;1.20;99.90
53904;DHT22;39812;52.430;16.936;2022-12-10T07:16:25;1.20;99.90
53904;DHT22;39812;52.430;16.936;2022-12-10T07:18:51;1.20;99.90
53904;DHT22;39812;52.430;16.936;2022-12-10T07:21:30;1.20;99.90
53904;DHT22;39812;52.430;16.936;2022-12-10T07:23:59;1.20;99.90
53904;DHT22;39812;52.430;16.936;2022-12-10T07:26:25;1.30;99.90
53904;DHT22;39812;52.430;16.936;2022-12-10T07:28:52;1.30;99.90
53904;DHT22;39812;52.430;16.936;2022-12-10T07:31:18;1.20;99.90
53904;DHT22;39812;52.430;16.936;2022-12-10T07:33:44;1.10;99.90
53904;DHT22;39812;52.430;16.936;2022-12-10T07:36:11;1.10;99.90
53904;DHT22;39812;52.430;16.936;2022-12-10T07:38:37;1.20;99.90
53904;DHT22;39812;52.430;16.936;2022-12-10T07:41:08;1.20;99.90
53904;DHT22;39812;52.430;16.936;2022-12-10T07:43:35;1.20;99.90
53904;DHT22;39812;52.430;16.936;2022-12-10T07:48:35;1.40;99.90
53904;DHT22;39812;52.430;16.936;2022-12-10T07:51:01;1.40;99.90
53904;DHT22;39812;52.430;16.936;2022-12-10T07:53:26;1.40;99.90
53904;DHT22;39812;52.430;16.936;2022-12-10T07:55:52;1.50;99.90
53904;DHT22;39812;52.430;16.936;2022-12-10T07:58:18;1.40;99.90
53904;DHT22;39812;52.430;16.936;2022-12-10T08:00:43;1.40;99.90
53904;DHT22;39812;52.430;16.936;2022-12-10T08:03:09;1.40;99.90
53904;DHT22;39812;52.430;16.936;2022-12-10T08:05:34;1.40;99.90
53904;DHT22;39812;52.430;16.936;2022-12-10T08:08:00;1.30;99.90
53904;DHT22;39812;52.430;16.936;2022-12-10T08:10:26;1.50;99.90
53904;DHT22;39812;52.430;16.936;2022-12-10T08:12:51;1.50;99.90
53904;DHT22;39812;52.430;16.936;2022-12-10T08:15:17;1.50;99.90
53904;DHT22;39812;52.430;16.936;2022-12-10T08:17:42;1.40;99.90
53904;DHT22;39812;52.430;16.936;2022-12-10T08:20:08;1.40;99.90
53904;DHT22;39812;52.430;16.936;2022-12-10T08:22:34;1.40;99.90
53904;DHT22;39812;52.430;16.936;2022-12-10T08:25:01;1.40;99.90
53904;DHT22;39812;52.430;16.936;2022-12-10T08:27:26;1.50;99.90
53904;DHT22;39812;52.430;16.936;2022-12-10T08:29:52;1.40;99.90
53904;DHT22;39812;52.430;16.936;2022-12-10T08:32:18;1.50;99.90
53904;DHT22;39812;52.430;16.936;2022-12-10T08:34:44;1.50;99.90
53904;DHT22;39812;52.430;16.936;2022-12-10T08:37:09;1.50;99.90
53904;DHT22;39812;52.430;16.936;2022-12-10T08:39:35;1.50;99.90
53904;DHT22;39812;52.430;16.936;2022-12-10T08:42:00;1.70;99.90
53904;DHT22;39812;52.430;16.936;2022-12-10T08:44:26;1.80;99.90
53904;DHT22;39812;52.430;16.936;2022-12-10T08:46:51;1.70;99.90
53904;DHT22;39812;52.430;16.936;2022-12-10T08:49:17;1.70;99.90
53904;DHT22;39812;52.430;16.936;2022-12-10T08:51:43;1.70;99.90
53904;DHT22;39812;52.430;16.936;2022-12-10T08:54:08;1.80;99.90
53904;DHT22;39812;52.430;16.936;2022-12-10T08:56:34;1.90;99.90
53904;DHT22;39812;52.430;16.936;2022-12-10T08:59:00;1.90;99.90
53904;DHT22;39812;52.430;16.936;2022-12-10T09:01:25;1.90;99.90
53904;DHT22;39812;52.430;16.936;2022-12-10T09:03:51;2.00;99.90
53904;DHT22;39812;52.430;16.936;2022-12-10T09:06:19;2.00;99.90
53904;DHT22;39812;52.430;16.936;2022-12-10T09:08:46;2.10;99.90
53904;DHT22;39812;52.430;16.936;2022-12-10T09:11:24;2.10;99.90
53904;DHT22;39812;52.430;16.936;2022-12-10T09:13:51;2.20;99.90
53904;DHT22;39812;52.430;16.936;2022-12-10T09:16:17;2.20;99.90
53904;DHT22;39812;52.430;16.936;2022-12-10T09:18:43;2.30;99.90
53904;DHT22;39812;52.430;16.936;2022-12-10T09:21:12;2.30;99.90
53904;DHT22;39812;52.430;16.936;2022-12-10T09:23:40;2.30;99.90
53904;DHT22;39812;52.430;16.936;2022-12-10T09:26:07;2.40;99.90
53904;DHT22;39812;52.430;16.936;2022-12-10T09:28:33;2.40;99.90
53904;DHT22;39812;52.430;16.936;2022-12-10T09:31:00;2.40;99.90
53904;DHT22;39812;52.430;16.936;2022-12-10T09:33:26;2.50;99.90
53904;DHT22;39812;52.430;16.936;2022-12-10T09:35:52;2.60;99.90
53904;DHT22;39812;52.430;16.936;2022-12-10T09:38:18;2.60;99.90
53904;DHT22;39812;52.430;16.936;2022-12-10T09:40:55;2.50;99.90
53904;DHT22;39812;52.430;16.936;2022-12-10T09:43:41;2.50;99.90
53904;DHT22;39812;52.430;16.936;2022-12-10T09:46:41;2.50;99.90
53904;DHT22;39812;52.430;16.936;2022-12-10T09:51:58;2.40;99.90
53904;DHT22;39812;52.430;16.936;2022-12-10T09:54:33;2.50;99.90
53904;DHT22;39812;52.430;16.936;2022-12-10T09:57:00;2.50;99.90
53904;DHT22;39812;52.430;16.936;2022-12-10T09:59:30;2.50;99.90
53904;DHT22;39812;52.430;16.936;2022-12-10T10:02:24;2.60;99.90
53904;DHT22;39812;52.430;16.936;2022-12-10T10:04:52;2.70;99.90
53904;DHT22;39812;52.430;16.936;2022-12-10T10:07:25;2.70;99.90
53904;DHT22;39812;52.430;16.936;2022-12-10T10:09:57;2.70;99.90
53904;DHT22;39812;52.430;16.936;2022-12-10T10:12:30;2.70;99.90
53904;DHT22;39812;52.430;16.936;2022-12-10T10:14:56;2.70;99.90
53904;DHT22;39812;52.430;16.936;2022-12-10T10:17:35;2.60;99.90
53904;DHT22;39812;52.430;16.936;2022-12-10T10:20:01;2.70;99.90
53904;DHT22;39812;52.430;16.936;2022-12-10T10:22:27;2.70;99.90
53904;DHT22;39812;52.430;16.936;2022-12-10T10:24:53;2.60;99.90
53904;DHT22;39812;52.430;16.936;2022-12-10T10:27:24;2.50;99.90
53904;DHT22;39812;52.430;16.936;2022-12-10T10:29:54;2.40;99.90
53904;DHT22;39812;52.430;16.936;2022-12-10T10:32:21;2.20;99.90
53904;DHT22;39812;52.430;16.936;2022-12-10T10:34:58;2.20;99.90
53904;DHT22;39812;52.430;16.936;2022-12-10T10:37:29;2.20;99.90
53904;DHT22;39812;52.430;16.936;2022-12-10T10:39:56;2.10;99.90
53904;DHT22;39812;52.430;16.936;2022-12-10T10:44:54;2.00;99.90
53904;DHT22;39812;52.430;16.936;2022-12-10T10:47:33;1.90;99.90
53904;DHT22;39812;52.430;16.936;2022-12-10T10:50:00;1.90;99.90
53904;DHT22;39812;52.430;16.936;2022-12-10T10:52:34;1.90;99.90
53904;DHT22;39812;52.430;16.936;2022-12-10T10:55:01;1.90;99.90
53904;DHT22;39812;52.430;16.936;2022-12-10T10:57:36;1.90;99.90
53904;DHT22;39812;52.430;16.936;2022-12-10T11:00:21;2.00;99.90
53904;DHT22;39812;52.430;16.936;2022-12-10T11:02:48;1.90;99.90
53904;DHT22;39812;52.430;16.936;2022-12-10T11:05:21;2.10;99.90
53904;DHT22;39812;52.430;16.936;2022-12-10T11:08:03;2.10;99.90
53904;DHT22;39812;52.430;16.936;2022-12-10T11:10:30;2.20;99.90
53904;DHT22;39812;52.430;16.936;2022-12-10T11:13:03;2.30;99.90
53904;DHT22;39812;52.430;16.936;2022-12-10T11:15:40;2.30;99.90
53904;DHT22;39812;52.430;16.936;2022-12-10T11:23:26;2.00;99.90
53904;DHT22;39812;52.430;16.936;2022-12-10T11:26:06;2.10;99.90
53904;DHT22;39812;52.430;16.936;2022-12-10T11:47:57;2.40;99.90
53904;DHT22;39812;52.430;16.936;2022-12-10T11:50:48;2.40;99.90
53904;DHT22;39812;52.430;16.936;2022-12-10T11:58:58;2.20;99.90
53904;DHT22;39812;52.430;16.936;2022-12-10T12:07:22;2.10;99.90
53904;DHT22;39812;52.430;16.936;2022-12-10T12:15:49;1.90;99.90
53904;DHT22;39812;52.430;16.936;2022-12-10T12:18:23;1.90;99.90
53904;DHT22;39812;52.430;16.936;2022-12-10T12:20:59;1.80;99.90
53904;DHT22;39812;52.430;16.936;2022-12-10T12:23:33;1.80;99.90
53904;DHT22;39812;52.430;16.936;2022-12-10T12:26:12;1.80;99.90
53904;DHT22;39812;52.430;16.936;2022-12-10T12:28:41;1.80;99.90
53904;DHT22;39812;52.430;16.936;2022-12-10T12:31:14;1.80;99.90
53904;DHT22;39812;52.430;16.936;2022-12-10T12:33:45;1.80;99.90
53904;DHT22;39812;52.430;16.936;2022-12-10T12:36:22;1.90;99.90
53904;DHT22;39812;52.430;16.936;2022-12-10T12:39:00;1.80;99.90
53904;DHT22;39812;52.430;16.936;2022-12-10T12:41:55;1.80;99.90
53904;DHT22;39812;52.430;16.936;2022-12-10T12:44:28;1.80;99.90
53904;DHT22;39812;52.430;16.936;2022-12-10T12:47:05;1.90;99.90
53904;DHT22;39812;52.430;16.936;2022-12-10T12:49:38;1.90;99.90
53904;DHT22;39812;52.430;16.936;2022-12-10T12:52:35;2.00;99.90
53904;DHT22;39812;52.430;16.936;2022-12-10T12:56:02;2.00;99.90
53904;DHT22;39812;52.430;16.936;2022-12-10T13:00:51;2.00;99.90
53904;DHT22;39812;52.430;16.936;2022-12-10T13:03:38;2.00;99.90
53904;DHT22;39812;52.430;16.936;2022-12-10T13:06:21;1.90;99.90
53904;DHT22;39812;52.430;16.936;2022-12-10T13:08:51;1.90;99.90
53904;DHT22;39812;52.430;16.936;2022-12-10T13:11:27;1.80;99.90
53904;DHT22;39812;52.430;16.936;2022-12-10T13:19:32;1.90;99.90
53904;DHT22;39812;52.430;16.936;2022-12-10T13:22:10;1.90;99.90
53904;DHT22;39812;52.430;16.936;2022-12-10T13:30:00;1.90;99.90
53904;DHT22;39812;52.430;16.936;2022-12-10T13:49:04;1.70;99.90
53904;DHT22;39812;52.430;16.936;2022-12-10T13:57:15;1.60;99.90
53904;DHT22;39812;52.430;16.936;2022-12-10T14:08:28;1.40;99.90
53904;DHT22;39812;52.430;16.936;2022-12-10T14:10:56;1.40;99.90
53904;DHT22;39812;52.430;16.936;2022-12-10T14:13:35;1.40;99.90
53904;DHT22;39812;52.430;16.936;2022-12-10T14:16:05;1.30;99.90
53904;DHT22;39812;52.430;16.936;2022-12-10T14:18:35;1.20;99.90
53904;DHT22;39812;52.430;16.936;2022-12-10T14:21:04;1.20;99.90
53904;DHT22;39812;52.430;16.936;2022-12-10T14:23:33;1.10;99.90
53904;DHT22;39812;52.430;16.936;2022-12-10T14:26:06;1.10;99.90
53904;DHT22;39812;52.430;16.936;2022-12-10T14:28:36;1.10;99.90
53904;DHT22;39812;52.430;16.936;2022-12-10T14:31:02;1.10;99.90
53904;DHT22;39812;52.430;16.936;2022-12-10T14:33:28;1.10;99.90
53904;DHT22;39812;52.430;16.936;2022-12-10T14:35:54;1.20;99.90
53904;DHT22;39812;52.430;16.936;2022-12-10T14:38:23;1.10;99.90
53904;DHT22;39812;52.430;16.936;2022-12-10T14:40:53;1.10;99.90
53904;DHT22;39812;52.430;16.936;2022-12-10T14:43:37;1.20;99.90
53904;DHT22;39812;52.430;16.936;2022-12-10T14:46:05;1.10;99.90
53904;DHT22;39812;52.430;16.936;2022-12-10T14:48:39;1.10;99.90
53904;DHT22;39812;52.430;16.936;2022-12-10T14:51:14;1.00;99.90
53904;DHT22;39812;52.430;16.936;2022-12-10T14:53:40;1.00;99.90
53904;DHT22;39812;52.430;16.936;2022-12-10T14:56:08;1.10;99.90
53904;DHT22;39812;52.430;16.936;2022-12-10T14:58:55;1.10;99.90
53904;DHT22;39812;52.430;16.936;2022-12-10T15:01:35;1.10;99.90
53904;DHT22;39812;52.430;16.936;2022-12-10T15:04:05;1.00;99.90
53904;DHT22;39812;52.430;16.936;2022-12-10T15:06:36;1.00;99.90
53904;DHT22;39812;52.430;16.936;2022-12-10T15:09:03;0.90;99.90
53904;DHT22;39812;52.430;16.936;2022-12-10T15:11:29;0.90;99.90
53904;DHT22;39812;52.430;16.936;2022-12-10T15:14:00;1.00;99.90
53904;DHT22;39812;52.430;16.936;2022-12-10T15:16:41;1.00;99.90
53904;DHT22;39812;52.430;16.936;2022-12-10T15:19:23;1.00;99.90
53904;DHT22;39812;52.430;16.936;2022-12-10T15:21:51;1.00;99.90
53904;DHT22;39812;52.430;16.936;2022-12-10T15:24:20;1.00;99.90
53904;DHT22;39812;52.430;16.936;2022-12-10T15:26:49;0.90;99.90
53904;DHT22;39812;52.430;16.936;2022-12-10T15:29:31;1.00;99.90
53904;DHT22;39812;52.430;16.936;2022-12-10T15:32:25;1.00;99.90
53904;DHT22;39812;52.430;16.936;2022-12-10T15:37:27;1.00;99.90
53904;DHT22;39812;52.430;16.936;2022-12-10T15:39:58;1.00;99.90
53904;DHT22;39812;52.430;16.936;2022-12-10T15:45:01;0.90;99.90
53904;DHT22;39812;52.430;16.936;2022-12-10T15:47:27;0.90;99.90
53904;DHT22;39812;52.430;16.936;2022-12-10T15:49:55;1.00;99.90
53904;DHT22;39812;52.430;16.936;2022-12-10T15:52:29;0.80;99.90
53904;DHT22;39812;52.430;16.936;2022-12-10T15:54:56;0.80;99.90
53904;DHT22;39812;52.430;16.936;2022-12-10T15:59:50;0.70;99.90
53904;DHT22;39812;52.430;16.936;2022-12-10T16:02:26;0.70;99.90
53904;DHT22;39812;52.430;16.936;2022-12-10T16:04:57;0.80;99.90
53904;DHT22;39812;52.430;16.936;2022-12-10T16:07:22;0.70;99.90
53904;DHT22;39812;52.430;16.936;2022-12-10T16:09:48;0.70;99.90
53904;DHT22;39812;52.430;16.936;2022-12-10T16:12:15;0.70;99.90
53904;DHT22;39812;52.430;16.936;2022-12-10T16:14:52;0.70;99.90
53904;DHT22;39812;52.430;16.936;2022-12-10T16:17:22;0.60;99.90
53904;DHT22;39812;52.430;16.936;2022-12-10T16:19:48;0.60;99.90
53904;DHT22;39812;52.430;16.936;2022-12-10T16:22:14;0.60;99.90
53904;DHT22;39812;52.430;16.936;2022-12-10T16:24:39;0.60;99.90
53904;DHT22;39812;52.430;16.936;2022-12-10T16:27:12;0.60;99.90
53904;DHT22;39812;52.430;16.936;2022-12-10T16:29:38;0.70;99.90
53904;DHT22;39812;52.430;16.936;2022-12-10T16:32:04;0.70;99.90
53904;DHT22;39812;52.430;16.936;2022-12-10T16:34:29;0.70;99.90
53904;DHT22;39812;52.430;16.936;2022-12-10T16:36:55;0.70;99.90
53904;DHT22;39812;52.430;16.936;2022-12-10T16:39:21;0.60;99.90
53904;DHT22;39812;52.430;16.936;2022-12-10T16:41:51;0.60;99.90
53904;DHT22;39812;52.430;16.936;2022-12-10T16:44:18;0.60;99.90
53904;DHT22;39812;52.430;16.936;2022-12-10T16:46:43;0.60;99.90
53904;DHT22;39812;52.430;16.936;2022-12-10T16:49:09;0.70;99.90
53904;DHT22;39812;52.430;16.936;2022-12-10T16:51:35;0.70;99.90
53904;DHT22;39812;52.430;16.936;2022-12-10T16:54:01;0.60;99.90
53904;DHT22;39812;52.430;16.936;2022-12-10T16:56:27;0.50;99.90
53904;DHT22;39812;52.430;16.936;2022-12-10T16:58:53;0.50;99.90
53904;DHT22;39812;52.430;16.936;2022-12-10T17:01:20;0.60;99.90
53904;DHT22;39812;52.430;16.936;2022-12-10T17:03:46;0.60;99.90
53904;DHT22;39812;52.430;16.936;2022-12-10T17:06:12;0.70;99.90
53904;DHT22;39812;52.430;16.936;2022-12-10T17:08:38;0.60;99.90
53904;DHT22;39812;52.430;16.936;2022-12-10T17:11:21;0.60;99.90
53904;DHT22;39812;52.430;16.936;2022-12-10T17:16:38;0.60;99.90
53904;DHT22;39812;52.430;16.936;2022-12-10T17:19:04;0.60;99.90
53904;DHT22;39812;52.430;16.936;2022-12-10T17:21:29;0.60;99.90
53904;DHT22;39812;52.430;16.936;2022-12-10T17:23:55;0.60;99.90
53904;DHT22;39812;52.430;16.936;2022-12-10T17:26:29;0.60;99.90
53904;DHT22;39812;52.430;16.936;2022-12-10T17:29:01;0.60;99.90
53904;DHT22;39812;52.430;16.936;2022-12-10T17:31:27;0.60;99.90
53904;DHT22;39812;52.430;16.936;2022-12-10T17:33:53;0.50;99.90
53904;DHT22;39812;52.430;16.936;2022-12-10T17:36:19;0.50;99.90
53904;DHT22;39812;52.430;16.936;2022-12-10T17:38:45;0.50;99.90
53904;DHT22;39812;52.430;16.936;2022-12-10T17:41:10;0.50;99.90
53904;DHT22;39812;52.430;16.936;2022-12-10T17:43:41;0.50;99.90
53904;DHT22;39812;52.430;16.936;2022-12-10T17:46:10;0.50;99.90
53904;DHT22;39812;52.430;16.936;2022-12-10T17:48:36;0.30;99.90
53904;DHT22;39812;52.430;16.936;2022-12-10T17:51:02;0.40;99.90
53904;DHT22;39812;52.430;16.936;2022-12-10T17:53:28;0.30;99.90